EWG5AE LSZH-EDDS
Flight info
| Callsign | EWG5AE |
|---|---|
| Flight time | 0h 26m |
| Altitude | 19000 |
| Route | DEGES Z1 BODAN Z1 ALAGO Z4 ARSUT T125 REUTL REUTL1W |
| Aircraft | A319/M-SDE3FGHIRWY/LB1 |
Departure
| Time | 2026-05-05 19:15 |
|---|---|
| Airport | Zürich Airport (LSZH) |
Arrival
| Time | 2026-05-05 19:41 |
|---|---|
| Airport | Stuttgart Airport (EDDS) |
| Time | Latitude | Longitude | Altitude | Speed | Heading |
|---|---|---|---|---|---|
| 2026-05-05 18:15 | 47.45353 | 8.55647 | 1408 ft | 0 kts | 6° |
| 2026-05-05 18:56 | 47.45347 | 8.55646 | 1397 ft | 4 kts | 6° |
| 2026-05-05 18:56 | 47.45321 | 8.55642 | 1401 ft | 3 kts | 6° |
| 2026-05-05 18:56 | 47.45298 | 8.55640 | 1405 ft | 4 kts | 349° |
| 2026-05-05 18:56 | 47.45276 | 8.55655 | 1401 ft | 4 kts | 303° |
| 2026-05-05 18:57 | 47.45267 | 8.55691 | 1399 ft | 4 kts | 276° |
| 2026-05-05 18:57 | 47.45266 | 8.55701 | 1401 ft | 0 kts | 276° |
| 2026-05-05 19:01 | 47.45268 | 8.55682 | 1400 ft | 6 kts | 276° |
| 2026-05-05 19:01 | 47.45274 | 8.55604 | 1402 ft | 9 kts | 282° |
| 2026-05-05 19:01 | 47.45328 | 8.55542 | 1401 ft | 11 kts | 335° |
| 2026-05-05 19:02 | 47.45407 | 8.55487 | 1397 ft | 14 kts | 334° |
| 2026-05-05 19:02 | 47.45489 | 8.55435 | 1402 ft | 11 kts | 352° |
| 2026-05-05 19:02 | 47.45524 | 8.55520 | 1397 ft | 12 kts | 94° |
| 2026-05-05 19:02 | 47.45514 | 8.55658 | 1397 ft | 15 kts | 96° |
| 2026-05-05 19:03 | 47.45502 | 8.55823 | 1405 ft | 18 kts | 96° |
| 2026-05-05 19:03 | 47.45489 | 8.56015 | 1404 ft | 20 kts | 96° |
| 2026-05-05 19:03 | 47.45476 | 8.56188 | 1397 ft | 12 kts | 95° |
| 2026-05-05 19:03 | 47.45541 | 8.56251 | 1397 ft | 14 kts | 5° |
| 2026-05-05 19:04 | 47.45621 | 8.56265 | 1397 ft | 6 kts | 6° |
| 2026-05-05 19:04 | 47.45625 | 8.56265 | 1397 ft | 0 kts | 6° |
| 2026-05-05 19:08 | 47.45631 | 8.56266 | 1396 ft | 3 kts | 6° |
| 2026-05-05 19:08 | 47.45669 | 8.56272 | 1400 ft | 11 kts | 6° |
| 2026-05-05 19:09 | 47.45768 | 8.56288 | 1403 ft | 15 kts | 6° |
| 2026-05-05 19:09 | 47.45809 | 8.56294 | 1403 ft | 3 kts | 6° |
| 2026-05-05 19:09 | 47.45828 | 8.56297 | 1401 ft | 7 kts | 6° |
| 2026-05-05 19:09 | 47.45904 | 8.56309 | 1403 ft | 12 kts | 6° |
| 2026-05-05 19:10 | 47.45964 | 8.56318 | 1403 ft | 0 kts | 6° |
| 2026-05-05 19:10 | 47.45966 | 8.56318 | 1403 ft | 0 kts | 6° |
| 2026-05-05 19:10 | 47.46001 | 8.56323 | 1403 ft | 8 kts | 6° |
| 2026-05-05 19:11 | 47.46021 | 8.56326 | 1402 ft | 0 kts | 6° |
| 2026-05-05 19:12 | 47.46028 | 8.56327 | 1402 ft | 3 kts | 6° |
| 2026-05-05 19:12 | 47.46037 | 8.56329 | 1402 ft | 1 kts | 6° |
| 2026-05-05 19:12 | 47.46065 | 8.56337 | 1402 ft | 7 kts | 19° |
| 2026-05-05 19:12 | 47.46110 | 8.56398 | 1399 ft | 11 kts | 47° |
| 2026-05-05 19:13 | 47.46161 | 8.56403 | 1399 ft | 0 kts | 318° |
| 2026-05-05 19:14 | 47.46166 | 8.56397 | 1398 ft | 5 kts | 318° |
| 2026-05-05 19:14 | 47.46314 | 8.56196 | 1397 ft | 60 kts | 317° |
| 2026-05-05 19:14 | 47.46776 | 8.55560 | 1399 ft | 120 kts | 317° |
| 2026-05-05 19:15 | 47.47251 | 8.54916 | 1404 ft | 156 kts | 316° |
| 2026-05-05 19:15 | 47.48293 | 8.53500 | 2271 ft | 152 kts | 316° |
| 2026-05-05 19:15 | 47.48822 | 8.52793 | 2735 ft | 155 kts | 314° |
| 2026-05-05 19:15 | 47.50078 | 8.51383 | 3218 ft | 190 kts | 328° |
| 2026-05-05 19:16 | 47.50901 | 8.50723 | 3474 ft | 208 kts | 327° |
| 2026-05-05 19:16 | 47.52173 | 8.49576 | 4208 ft | 216 kts | 316° |
| 2026-05-05 19:16 | 47.53110 | 8.47873 | 5195 ft | 212 kts | 292° |
| 2026-05-05 19:16 | 47.53517 | 8.45811 | 6213 ft | 209 kts | 271° |
| 2026-05-05 19:17 | 47.53369 | 8.43678 | 7152 ft | 211 kts | 251° |
| 2026-05-05 19:17 | 47.52774 | 8.41700 | 8170 ft | 211 kts | 242° |
| 2026-05-05 19:17 | 47.52140 | 8.39729 | 9174 ft | 213 kts | 243° |
| 2026-05-05 19:17 | 47.51263 | 8.37849 | 9761 ft | 237 kts | 221° |
| 2026-05-05 19:18 | 47.49689 | 8.36743 | 9896 ft | 278 kts | 191° |
| 2026-05-05 19:18 | 47.47632 | 8.37146 | 9904 ft | 316 kts | 160° |
| 2026-05-05 19:18 | 47.45861 | 8.39165 | 9908 ft | 333 kts | 130° |
| 2026-05-05 19:18 | 47.44917 | 8.42323 | 9907 ft | 345 kts | 103° |
| 2026-05-05 19:19 | 47.44833 | 8.45881 | 9890 ft | 349 kts | 88° |
| 2026-05-05 19:19 | 47.45053 | 8.49464 | 9927 ft | 354 kts | 86° |
| 2026-05-05 19:19 | 47.45289 | 8.53125 | 10653 ft | 357 kts | 86° |
| 2026-05-05 19:19 | 47.45515 | 8.56787 | 11524 ft | 360 kts | 89° |
| 2026-05-05 19:20 | 47.45523 | 8.60496 | 12333 ft | 363 kts | 95° |
| 2026-05-05 19:20 | 47.45329 | 8.64235 | 13139 ft | 367 kts | 98° |
| 2026-05-05 19:20 | 47.45024 | 8.68008 | 13917 ft | 372 kts | 100° |
| 2026-05-05 19:20 | 47.44685 | 8.71813 | 14655 ft | 376 kts | 100° |
| 2026-05-05 19:21 | 47.44353 | 8.75658 | 15425 ft | 379 kts | 99° |
| 2026-05-05 19:21 | 47.44044 | 8.79532 | 16168 ft | 381 kts | 98° |
| 2026-05-05 19:21 | 47.43782 | 8.83442 | 16936 ft | 385 kts | 95° |
| 2026-05-05 19:21 | 47.44064 | 8.87400 | 17665 ft | 393 kts | 76° |
| 2026-05-05 19:22 | 47.45187 | 8.91094 | 18374 ft | 399 kts | 57° |
| 2026-05-05 19:22 | 47.47071 | 8.94106 | 18758 ft | 402 kts | 37° |
| 2026-05-05 19:22 | 47.49523 | 8.96037 | 18871 ft | 403 kts | 19° |
| 2026-05-05 19:22 | 47.52189 | 8.97440 | 18898 ft | 409 kts | 18° |
| 2026-05-05 19:23 | 47.54874 | 8.98859 | 18894 ft | 411 kts | 18° |
| 2026-05-05 19:23 | 47.57580 | 9.00307 | 18889 ft | 411 kts | 19° |
| 2026-05-05 19:23 | 47.60251 | 9.01753 | 18893 ft | 411 kts | 19° |
| 2026-05-05 19:23 | 47.62936 | 9.03220 | 18894 ft | 411 kts | 19° |
| 2026-05-05 19:24 | 47.65618 | 9.04684 | 18898 ft | 411 kts | 19° |
| 2026-05-05 19:24 | 47.68303 | 9.06151 | 18889 ft | 411 kts | 19° |
| 2026-05-05 19:24 | 47.70991 | 9.07625 | 18893 ft | 412 kts | 19° |
| 2026-05-05 19:24 | 47.73675 | 9.09100 | 18894 ft | 412 kts | 19° |
| 2026-05-05 19:25 | 47.76362 | 9.10578 | 18893 ft | 412 kts | 19° |
| 2026-05-05 19:25 | 47.79048 | 9.12054 | 18887 ft | 412 kts | 19° |
| 2026-05-05 19:25 | 47.81736 | 9.13524 | 18883 ft | 411 kts | 19° |
| 2026-05-05 19:25 | 47.84381 | 9.14971 | 18670 ft | 401 kts | 19° |
| 2026-05-05 19:26 | 47.87021 | 9.16420 | 18208 ft | 396 kts | 19° |
| 2026-05-05 19:26 | 47.89610 | 9.17775 | 17707 ft | 392 kts | 16° |
| 2026-05-05 19:26 | 47.92201 | 9.18972 | 17197 ft | 388 kts | 14° |
| 2026-05-05 19:26 | 47.94789 | 9.20066 | 16696 ft | 385 kts | 13° |
| 2026-05-05 19:27 | 47.97367 | 9.21114 | 16202 ft | 382 kts | 13° |
| 2026-05-05 19:27 | 47.99926 | 9.22156 | 15718 ft | 380 kts | 13° |
| 2026-05-05 19:27 | 48.02466 | 9.23209 | 15228 ft | 377 kts | 13° |
| 2026-05-05 19:27 | 48.04983 | 9.24274 | 14769 ft | 375 kts | 13° |
| 2026-05-05 19:28 | 48.07481 | 9.25354 | 14391 ft | 372 kts | 14° |
| 2026-05-05 19:28 | 48.09968 | 9.26438 | 14148 ft | 372 kts | 14° |
| 2026-05-05 19:28 | 48.12447 | 9.27522 | 13903 ft | 371 kts | 14° |
| 2026-05-05 19:28 | 48.14924 | 9.28606 | 13666 ft | 370 kts | 14° |
| 2026-05-05 19:29 | 48.17392 | 9.29685 | 13401 ft | 369 kts | 14° |
| 2026-05-05 19:29 | 48.19855 | 9.30757 | 13129 ft | 368 kts | 13° |
| 2026-05-05 19:29 | 48.22306 | 9.31821 | 12856 ft | 366 kts | 13° |
| 2026-05-05 19:29 | 48.24751 | 9.32882 | 12603 ft | 365 kts | 13° |
| 2026-05-05 19:30 | 48.27187 | 9.33940 | 12343 ft | 364 kts | 13° |
| 2026-05-05 19:30 | 48.29615 | 9.34998 | 12093 ft | 363 kts | 13° |
| 2026-05-05 19:30 | 48.32033 | 9.36058 | 11838 ft | 361 kts | 13° |
| 2026-05-05 19:30 | 48.34442 | 9.37118 | 11583 ft | 360 kts | 13° |
| 2026-05-05 19:31 | 48.36841 | 9.38174 | 11328 ft | 359 kts | 13° |
| 2026-05-05 19:31 | 48.39236 | 9.39227 | 11078 ft | 358 kts | 13° |
| 2026-05-05 19:31 | 48.41616 | 9.40269 | 10712 ft | 354 kts | 13° |
| 2026-05-05 19:31 | 48.43986 | 9.41305 | 10424 ft | 343 kts | 13° |
| 2026-05-05 19:32 | 48.46229 | 9.42290 | 10294 ft | 328 kts | 13° |
| 2026-05-05 19:32 | 48.48377 | 9.43239 | 10155 ft | 317 kts | 13° |
| 2026-05-05 19:32 | 48.50474 | 9.44168 | 9937 ft | 311 kts | 12° |
| 2026-05-05 19:32 | 48.52541 | 9.45082 | 9761 ft | 311 kts | 12° |
| 2026-05-05 19:33 | 48.54637 | 9.46002 | 9270 ft | 312 kts | 12° |
| 2026-05-05 19:33 | 48.56709 | 9.46913 | 8888 ft | 310 kts | 12° |
| 2026-05-05 19:33 | 48.58710 | 9.48053 | 8609 ft | 308 kts | 27° |
| 2026-05-05 19:33 | 48.60476 | 9.49869 | 8264 ft | 307 kts | 33° |
| 2026-05-05 19:34 | 48.62191 | 9.51768 | 7902 ft | 305 kts | 34° |
| 2026-05-05 19:34 | 48.63889 | 9.53668 | 7552 ft | 303 kts | 34° |
| 2026-05-05 19:34 | 48.65576 | 9.55566 | 7213 ft | 301 kts | 34° |
| 2026-05-05 19:35 | 48.69020 | 9.58666 | 6934 ft | 274 kts | 6° |
| 2026-05-05 19:35 | 48.70831 | 9.58532 | 6813 ft | 252 kts | 336° |
| 2026-05-05 19:35 | 48.72353 | 9.57346 | 6421 ft | 245 kts | 317° |
| 2026-05-05 19:35 | 48.73518 | 9.55471 | 5661 ft | 247 kts | 297° |
| 2026-05-05 19:36 | 48.74165 | 9.53114 | 5068 ft | 235 kts | 279° |
| 2026-05-05 19:36 | 48.74261 | 9.50804 | 4748 ft | 208 kts | 263° |
| 2026-05-05 19:36 | 48.73982 | 9.48781 | 4517 ft | 186 kts | 253° |
| 2026-05-05 19:36 | 48.73645 | 9.46977 | 4250 ft | 171 kts | 253° |
| 2026-05-05 19:37 | 48.73335 | 9.45318 | 4026 ft | 151 kts | 252° |
| 2026-05-05 19:37 | 48.73070 | 9.43898 | 3843 ft | 133 kts | 253° |
| 2026-05-05 19:37 | 48.72824 | 9.42584 | 3662 ft | 126 kts | 252° |
| 2026-05-05 19:37 | 48.72587 | 9.41317 | 3504 ft | 124 kts | 252° |
| 2026-05-05 19:38 | 48.72353 | 9.40070 | 3337 ft | 122 kts | 252° |
| 2026-05-05 19:38 | 48.72121 | 9.38829 | 3176 ft | 122 kts | 252° |
| 2026-05-05 19:38 | 48.71889 | 9.37590 | 2989 ft | 121 kts | 252° |
| 2026-05-05 19:38 | 48.71658 | 9.36368 | 2844 ft | 121 kts | 252° |
| 2026-05-05 19:39 | 48.71427 | 9.35143 | 2664 ft | 121 kts | 252° |
| 2026-05-05 19:39 | 48.71195 | 9.33902 | 2508 ft | 121 kts | 252° |
| 2026-05-05 19:39 | 48.70960 | 9.32652 | 2363 ft | 121 kts | 252° |
| 2026-05-05 19:39 | 48.70737 | 9.31475 | 2187 ft | 121 kts | 252° |
| 2026-05-05 19:40 | 48.70505 | 9.30239 | 2016 ft | 124 kts | 252° |
| 2026-05-05 19:40 | 48.70266 | 9.28977 | 1852 ft | 126 kts | 252° |
| 2026-05-05 19:40 | 48.70027 | 9.27701 | 1688 ft | 126 kts | 252° |
| 2026-05-05 19:40 | 48.69783 | 9.26409 | 1507 ft | 126 kts | 252° |
| 2026-05-05 19:41 | 48.69543 | 9.25136 | 1374 ft | 125 kts | 252° |
| 2026-05-05 19:41 | 48.69312 | 9.23876 | 1289 ft | 123 kts | 254° |
| 2026-05-05 19:41 | 48.69115 | 9.22862 | 1288 ft | 76 kts | 254° |
| 2026-05-05 19:41 | 48.69015 | 9.22344 | 1288 ft | 27 kts | 253° |
| 2026-05-05 19:42 | 48.68978 | 9.22144 | 1286 ft | 25 kts | 254° |
| 2026-05-05 19:42 | 48.68943 | 9.21862 | 1286 ft | 30 kts | 268° |
| 2026-05-05 19:42 | 48.68970 | 9.21592 | 1286 ft | 25 kts | 283° |
| 2026-05-05 19:42 | 48.68996 | 9.21424 | 1287 ft | 12 kts | 287° |
| 2026-05-05 19:43 | 48.68995 | 9.21305 | 1286 ft | 13 kts | 257° |
| 2026-05-05 19:43 | 48.68964 | 9.21138 | 1286 ft | 21 kts | 253° |
| 2026-05-05 19:43 | 48.68920 | 9.20912 | 1286 ft | 24 kts | 253° |
| 2026-05-05 19:43 | 48.68871 | 9.20649 | 1287 ft | 28 kts | 254° |
| 2026-05-05 19:44 | 48.68811 | 9.20346 | 1287 ft | 32 kts | 253° |
| 2026-05-05 19:44 | 48.68760 | 9.20069 | 1285 ft | 16 kts | 253° |
| 2026-05-05 19:44 | 48.68801 | 9.19941 | 1285 ft | 16 kts | 312° |
| 2026-05-05 19:44 | 48.68886 | 9.19852 | 1285 ft | 13 kts | 299° |
| 2026-05-05 19:45 | 48.68866 | 9.19706 | 1287 ft | 16 kts | 252° |
| 2026-05-05 19:45 | 48.68832 | 9.19522 | 1290 ft | 19 kts | 255° |
| 2026-05-05 19:45 | 48.68813 | 9.19403 | 1285 ft | 1 kts | 289° |
| 2026-05-05 19:45 | 48.68840 | 9.19380 | 1287 ft | 7 kts | 343° |
| 2026-05-05 19:46 | 48.68875 | 9.19365 | 1287 ft | 0 kts | 344° |
| 2026-05-05 19:46 | 48.68877 | 9.19363 | 1287 ft | 2 kts | 342° |
| 2026-05-05 19:46 | 48.68883 | 9.19360 | 1287 ft | 0 kts | 342° |